Emmanuel Tomasos — C6SS7 — position and weather

sailwx.info

Track history (hours):
 
Tides and Currents Weather Stations Pressure Air Temp Water Temp Dewpoint Dewpoint Depression Visibility Wind Speed Wind Dir Waves Ship Positions

Emmanuel Tomasos

Last reported at 2016-Aug-31 07:22 UTC. Time now 2016-Oct-01 13:53 UTC.
Position S 00°20' W 047°34'.
Warning: this ship's position is 31 days out of date.

Length 182 m; draft 7 m.

Type: Tanker. MMSI: 311459000.

Date/timePositionNaut miles runAvg speedWind from/ knotsBaromVisibWave heightAir tempDewpointWater temp
2016-Aug-31 07:22S 00°20' W 047°34'1012.3
2016-Aug-31 06:33S 00°24' W 047°43'1110.6
2016-Aug-31 05:34S 00°29' W 047°52'1715.2
2016-Aug-31 04:28S 00°36' W 048°08'1415.3
2016-Aug-31 03:33S 00°46' W 048°17'1414.3
2016-Aug-31 02:34S 00°59' W 048°24'1211.7
2016-Aug-31 01:34S 01°08' W 048°30'8 8.4
2016-Aug-31 00:33S 01°17' W 048°30'8 7.3
2016-Aug-30 23:31S 01°24' W 048°30'0 0.0
2016-Aug-30 22:31S 01°24' W 048°30'0 0.0
2016-Aug-30 21:31S 01°24' W 048°30'0 0.0
2016-Aug-30 20:31S 01°24' W 048°30'0 0.0
2016-Aug-30 19:28S 01°24' W 048°30'0 0.0
2016-Aug-30 18:31S 01°24' W 048°30'0 0.0
2016-Aug-30 17:31S 01°24' W 048°30'0 0.0
2016-Aug-30 16:31S 01°24' W 048°30'0 0.0
2016-Aug-30 15:31S 01°24' W 048°30'0 0.0
2016-Aug-30 14:28S 01°24' W 048°30'0 0.0
2016-Aug-30 13:31S 01°24' W 048°30'0 0.0
2016-Aug-30 12:31S 01°24' W 048°30'0 0.0
2016-Aug-30 11:31S 01°24' W 048°30'0 0.0
2016-Aug-30 10:31S 01°24' W 048°30'0 0.0
2016-Aug-30 09:31S 01°24' W 048°30'0 0.0
2016-Aug-30 08:31S 01°24' W 048°30'0 0.0
2016-Aug-30 07:31S 01°24' W 048°30'0 0.0
2016-Aug-30 06:31S 01°24' W 048°30'0 0.0
2016-Aug-30 05:32S 01°24' W 048°30'0 0.0
2016-Aug-30 04:31S 01°24' W 048°30'0 0.0
2016-Aug-30 03:31S 01°24' W 048°30'0 0.0
2016-Aug-30 02:31S 01°24' W 048°30'0 0.0
2016-Aug-30 01:31S 01°24' W 048°30'0 0.0
2016-Aug-30 00:31S 01°24' W 048°30'0 0.0
2016-Aug-29 23:31S 01°24' W 048°30'0 0.0
2016-Aug-29 22:31S 01°24' W 048°30'0 0.0
2016-Aug-29 21:31S 01°24' W 048°30'0 0.0
2016-Aug-29 20:31S 01°24' W 048°30'0 0.0
2016-Aug-29 19:31S 01°24' W 048°30'0 0.0
2016-Aug-29 18:31S 01°24' W 048°30'0 0.0
2016-Aug-29 17:31S 01°24' W 048°30'0 0.0
2016-Aug-29 16:31S 01°24' W 048°30'0 0.0
2016-Aug-29 15:31S 01°24' W 048°30'0 0.0
2016-Aug-29 14:31S 01°24' W 048°30'0 0.0
2016-Aug-29 13:31S 01°24' W 048°30'0 0.0
2016-Aug-29 12:31S 01°24' W 048°30'0 0.0
2016-Aug-29 11:31S 01°24' W 048°30'0 0.0
2016-Aug-29 10:33S 01°24' W 048°30'3 2.8
2016-Aug-29 09:33S 01°26' W 048°32'0 0.1
2016-Aug-29 08:33S 01°27' W 048°32'0 0.2
2016-Aug-29 07:34S 01°26' W 048°32'0 0.1
2016-Aug-29 06:33S 01°26' W 048°32'0 0.0
2016-Aug-29 05:34S 01°26' W 048°32'0 0.0
2016-Aug-29 04:33S 01°26' W 048°32'0 0.0
2016-Aug-29 03:33S 01°26' W 048°32'1 1.4
2016-Aug-29 02:34S 01°25' W 048°31'2 1.6
2016-Aug-29 01:33S 01°26' W 048°32'0 0.0
2016-Aug-29 00:33S 01°27' W 048°32'0 0.0
2016-Aug-28 23:34S 01°27' W 048°32'0 0.0
2016-Aug-28 22:34S 01°27' W 048°32'0 0.0
2016-Aug-28 21:34S 01°27' W 048°32'0 0.1
2016-Aug-28 20:33S 01°27' W 048°32'0 0.2
2016-Aug-28 19:33S 01°26' W 048°32'0 0.1
2016-Aug-28 18:22S 01°26' W 048°32'0 0.1
2016-Aug-28 17:33S 01°26' W 048°32'0 0.0
2016-Aug-28 16:33S 01°26' W 048°32'0 0.0
2016-Aug-28 15:33S 01°26' W 048°32'0 0.0
2016-Aug-28 14:34S 01°26' W 048°32'0 0.1
2016-Aug-28 13:33S 01°26' W 048°32'0 0.1
2016-Aug-28 12:34S 01°26' W 048°32'0 0.1
2016-Aug-28 11:34S 01°27' W 048°32'0 0.1
2016-Aug-28 10:33S 01°27' W 048°32'0 0.0
2016-Aug-28 09:33S 01°27' W 048°32'0 0.0
2016-Aug-28 08:33S 01°27' W 048°32'0 0.0
2016-Aug-28 07:33S 01°26' W 048°32'0 0.1
2016-Aug-28 06:33S 01°26' W 048°32'0 0.1
2016-Aug-28 05:33S 01°26' W 048°32'0 0.0
2016-Aug-28 04:34S 01°26' W 048°32'0 0.0
2016-Aug-28 03:33S 01°26' W 048°32'0 0.3
2016-Aug-28 02:34S 01°26' W 048°31'0 0.3
2016-Aug-28 01:34S 01°26' W 048°32'0 0.1
2016-Aug-28 00:33S 01°26' W 048°32'0 0.1
2016-Aug-27 23:34S 01°27' W 048°32'0 0.0
2016-Aug-27 22:33S 01°27' W 048°32'0 0.0
2016-Aug-27 21:33S 01°27' W 048°32'0 0.0
2016-Aug-27 20:33S 01°27' W 048°32'0 0.0
2016-Aug-27 19:34S 01°27' W 048°32'0 0.2
2016-Aug-27 18:34S 01°26' W 048°32'0 0.0
2016-Aug-27 17:33S 01°26' W 048°32'0 0.0
2016-Aug-27 16:33S 01°26' W 048°32'0 0.0
2016-Aug-27 15:33S 01°26' W 048°32'0 0.0
2016-Aug-27 14:33S 01°26' W 048°32'0 0.1
2016-Aug-27 13:33S 01°26' W 048°32'0 0.0
2016-Aug-27 12:34S 01°26' W 048°32'0 0.1
2016-Aug-27 11:33S 01°26' W 048°32'0 0.1
2016-Aug-27 10:33S 01°27' W 048°32'0 0.0
2016-Aug-27 09:33S 01°27' W 048°32'0 0.0
2016-Aug-27 08:34S 01°27' W 048°32'0 0.0
2016-Aug-27 07:33S 01°27' W 048°32'0 0.0
2016-Aug-27 06:34S 01°27' W 048°32'0 0.1
2016-Aug-27 04:33S 01°26' W 048°32'0 0.0
2016-Aug-27 03:33S 01°26' W 048°32'0 0.0
2016-Aug-27 02:33S 01°26' W 048°32'0 0.0
2016-Aug-27 01:34S 01°26' W 048°32'0 0.0
2016-Aug-27 00:33S 01°26' W 048°32'0 0.2
2016-Aug-26 23:33S 01°26' W 048°32'0 0.1
2016-Aug-26 22:33S 01°27' W 048°32'0 0.0
2016-Aug-26 21:34S 01°27' W 048°32'0 0.1
2016-Aug-26 20:33S 01°27' W 048°32'0 0.1
2016-Aug-26 19:34S 01°27' W 048°32'0 0.0
2016-Aug-26 18:34S 01°26' W 048°32'0 0.2
2016-Aug-26 17:33S 01°26' W 048°32'0 0.0
2016-Aug-26 16:33S 01°26' W 048°32'0 0.0
2016-Aug-26 15:33S 01°26' W 048°32'0 0.0
2016-Aug-26 14:33S 01°26' W 048°32'0 0.0
2016-Aug-26 13:33S 01°26' W 048°32'0 0.0
2016-Aug-26 12:33S 01°26' W 048°32'0 0.0
2016-Aug-26 11:33S 01°26' W 048°32'0 0.1
2016-Aug-26 10:34S 01°26' W 048°32'0 0.1
2016-Aug-26 09:33S 01°27' W 048°32'0 0.0
2016-Aug-26 08:33S 01°27' W 048°32'0 0.0
2016-Aug-26 07:33S 01°27' W 048°32'0 0.0
2016-Aug-26 06:34S 01°27' W 048°32'0 0.0
2016-Aug-26 04:33S 01°26' W 048°32'0 0.2
2016-Aug-26 03:33S 01°26' W 048°32'0 0.3
2016-Aug-26 02:33S 01°26' W 048°32'0 0.0
2016-Aug-26 01:34S 01°26' W 048°32'0 0.0
2016-Aug-26 00:33S 01°26' W 048°32'0 0.0
2016-Aug-25 23:33S 01°26' W 048°32'0 0.2
2016-Aug-25 22:33S 01°26' W 048°32'0 0.1
2016-Aug-25 21:33S 01°27' W 048°32'5 5.0
2016-Aug-25 20:33S 01°30' W 048°36'4 4.3
2016-Aug-25 19:31S 01°27' W 048°32'1 0.7
2016-Aug-25 18:31S 01°27' W 048°32'0 0.1
2016-Aug-25 17:31S 01°27' W 048°32'0 0.2
2016-Aug-25 16:32S 01°26' W 048°32'0 0.1
2016-Aug-25 15:32S 01°26' W 048°32'2 2.0
2016-Aug-25 14:31S 01°28' W 048°32'2 1.8
2016-Aug-25 13:32S 01°26' W 048°32'0 0.2
2016-Aug-25 12:32S 01°26' W 048°32'0 0.1
2016-Aug-25 11:32S 01°26' W 048°32'0 0.1
2016-Aug-25 10:32S 01°26' W 048°32'0 0.1
2016-Aug-25 09:33S 01°26' W 048°32'0 0.1
2016-Aug-25 08:31S 01°27' W 048°32'0 0.0
2016-Aug-25 07:32S 01°27' W 048°32'0 0.0
2016-Aug-25 06:31S 01°27' W 048°32'0 0.1
2016-Aug-25 04:33S 01°27' W 048°32'0 0.2
2016-Aug-25 03:31S 01°26' W 048°32'0 0.1
2016-Aug-25 02:31S 01°26' W 048°32'0 0.0
2016-Aug-25 01:32S 01°26' W 048°32'0 0.0
2016-Aug-25 00:33S 01°26' W 048°32'0 0.0
2016-Aug-24 23:31S 01°26' W 048°32'0 0.0
2016-Aug-24 22:31S 01°26' W 048°32'0 0.1
2016-Aug-24 21:32S 01°26' W 048°32'0 0.1
2016-Aug-24 20:31S 01°26' W 048°32'0 0.1
2016-Aug-24 19:32S 01°27' W 048°32'0 0.0
2016-Aug-24 18:32S 01°27' W 048°32'0 0.0
2016-Aug-24 17:31S 01°27' W 048°32'0 0.0
2016-Aug-24 16:32S 01°27' W 048°32'0 0.1
2016-Aug-24 15:32S 01°26' W 048°32'1 0.6
2016-Aug-24 14:32S 01°26' W 048°32'1 0.6
2016-Aug-24 13:28S 01°26' W 048°32'0 0.0
2016-Aug-24 12:32S 01°26' W 048°32'0 0.0
2016-Aug-24 11:32S 01°26' W 048°32'0 0.0
2016-Aug-24 10:31S 01°26' W 048°32'0 0.0
2016-Aug-24 09:32S 01°26' W 048°32'0 0.1
2016-Aug-24 08:32S 01°26' W 048°32'0 0.1
2016-Aug-24 07:31S 01°27' W 048°32'0 0.0
2016-Aug-24 06:32S 01°27' W 048°32'0 0.0
2016-Aug-24 04:32S 01°27' W 048°32'0 0.4
2016-Aug-24 03:32S 01°27' W 048°32'1 0.5
2016-Aug-24 02:32S 01°26' W 048°32'0 0.0
2016-Aug-24 01:32S 01°26' W 048°32'0 0.0
2016-Aug-24 00:33S 01°26' W 048°32'0 0.0
2016-Aug-23 23:32S 01°26' W 048°32'0 0.0
2016-Aug-23 22:32S 01°26' W 048°32'0 0.0
2016-Aug-23 21:31S 01°26' W 048°32'0 0.1
2016-Aug-23 20:32S 01°26' W 048°32'0 0.2
2016-Aug-23 19:32S 01°27' W 048°32'0 0.1
2016-Aug-23 18:31S 01°27' W 048°32'0 0.0
2016-Aug-23 17:32S 01°27' W 048°32'0 0.0
2016-Aug-23 16:32S 01°27' W 048°32'0 0.0
2016-Aug-23 15:32S 01°27' W 048°32'0 0.1
2016-Aug-23 14:29S 01°27' W 048°32'0 0.2
2016-Aug-23 13:32S 01°26' W 048°32'0 0.0
2016-Aug-23 12:32S 01°26' W 048°32'0 0.0
2016-Aug-23 11:32S 01°26' W 048°32'0 0.0
2016-Aug-23 10:32S 01°26' W 048°32'0 0.0
2016-Aug-23 09:32S 01°26' W 048°32'0 0.0
2016-Aug-23 08:32S 01°26' W 048°32'0 0.3
2016-Aug-23 07:33S 01°27' W 048°32'0 0.0
2016-Aug-23 06:33S 01°27' W 048°32'0 0.0
2016-Aug-23 05:33S 01°27' W 048°32'0 0.0
2016-Aug-23 04:33S 01°27' W 048°32'0 0.1
2016-Aug-23 03:33S 01°27' W 048°32'0 0.1
2016-Aug-23 02:33S 01°27' W 048°32'0 0.2
2016-Aug-23 01:33S 01°26' W 048°32'0 0.0
2016-Aug-23 00:33S 01°26' W 048°32'0 0.0
2016-Aug-22 23:33S 01°26' W 048°32'0 0.0
2016-Aug-22 22:33S 01°26' W 048°32'0 0.0
2016-Aug-22 21:33S 01°26' W 048°32'0 0.0
2016-Aug-22 20:33S 01°26' W 048°32'0 0.2
2016-Aug-22 19:33S 01°27' W 048°32'0 0.1
2016-Aug-22 18:33S 01°27' W 048°32'0 0.0
2016-Aug-22 17:33S 01°27' W 048°32'0 0.0
2016-Aug-22 16:33S 01°27' W 048°32'0 0.0
2016-Aug-22 15:33S 01°27' W 048°32'0 0.0
2016-Aug-22 14:33S 01°27' W 048°32'0 0.2
2016-Aug-22 13:33S 01°26' W 048°32'0 0.0
2016-Aug-22 12:32S 01°26' W 048°32'0 0.0
2016-Aug-22 11:32S 01°26' W 048°32'0 0.0
2016-Aug-22 10:32S 01°26' W 048°32'0 0.0
2016-Aug-22 09:32S 01°26' W 048°32'0 0.0
2016-Aug-22 08:32S 01°26' W 048°32'0 0.0
2016-Aug-22 07:32S 01°26' W 048°32'0 0.2
2016-Aug-22 06:32S 01°27' W 048°32'0 0.2
2016-Aug-22 04:32S 01°26' W 048°32'0 0.3
2016-Aug-22 03:32S 01°27' W 048°32'0 0.0
2016-Aug-22 02:32S 01°27' W 048°32'0 0.1
2016-Aug-22 01:32S 01°26' W 048°32'0 0.2
2016-Aug-22 00:32S 01°26' W 048°32'0 0.0
2016-Aug-21 23:33S 01°26' W 048°32'0 0.0
2016-Aug-21 22:32S 01°26' W 048°32'0 0.0
2016-Aug-21 21:32S 01°26' W 048°32'0 0.1
2016-Aug-21 20:32S 01°26' W 048°32'0 0.1
2016-Aug-21 19:32S 01°26' W 048°32'0 0.1
2016-Aug-21 18:32S 01°27' W 048°32'0 0.0
2016-Aug-21 17:32S 01°27' W 048°32'0 0.0
2016-Aug-21 16:33S 01°27' W 048°32'0 0.0
2016-Aug-21 15:32S 01°27' W 048°32'0 0.0
2016-Aug-21 14:33S 01°27' W 048°32'0 0.0
2016-Aug-21 13:32S 01°27' W 048°32'0 0.3
2016-Aug-21 12:32S 01°26' W 048°32'0 0.0
2016-Aug-21 11:32S 01°26' W 048°32'0 0.0
2016-Aug-21 10:32S 01°26' W 048°32'0 0.0
2016-Aug-21 09:32S 01°26' W 048°32'0 0.1
2016-Aug-21 08:32S 01°26' W 048°32'0 0.0
2016-Aug-21 07:32S 01°26' W 048°32'  
Track history (hours):
 
Tides and Currents Weather Stations Pressure Air Temp Water Temp Dewpoint Dewpoint Depression Visibility Wind Speed Wind Dir Waves Ship Positions

Emmanuel Tomasos

Last reported at 2016-Aug-31 07:22 UTC. Time now 2016-Oct-01 13:53 UTC.
Position S 00°20' W 047°34'.
Warning: this ship's position is 31 days out of date.

Length 182 m; draft 7 m.

Type: Tanker. MMSI: 311459000.

Date/timePositionNaut miles runAvg speedWind from/ knotsBaromVisibWave heightAir tempDewpointWater temp
2016-Aug-31 07:22S 00°20' W 047°34'1012.3
2016-Aug-31 06:33S 00°24' W 047°43'1110.6
2016-Aug-31 05:34S 00°29' W 047°52'1715.2
2016-Aug-31 04:28S 00°36' W 048°08'1415.3
2016-Aug-31 03:33S 00°46' W 048°17'1414.3
2016-Aug-31 02:34S 00°59' W 048°24'1211.7
2016-Aug-31 01:34S 01°08' W 048°30'8 8.4
2016-Aug-31 00:33S 01°17' W 048°30'8 7.3
2016-Aug-30 23:31S 01°24' W 048°30'0 0.0
2016-Aug-30 22:31S 01°24' W 048°30'0 0.0
2016-Aug-30 21:31S 01°24' W 048°30'0 0.0
2016-Aug-30 20:31S 01°24' W 048°30'0 0.0
2016-Aug-30 19:28S 01°24' W 048°30'0 0.0
2016-Aug-30 18:31S 01°24' W 048°30'0 0.0
2016-Aug-30 17:31S 01°24' W 048°30'0 0.0
2016-Aug-30 16:31S 01°24' W 048°30'0 0.0
2016-Aug-30 15:31S 01°24' W 048°30'0 0.0
2016-Aug-30 14:28S 01°24' W 048°30'0 0.0
2016-Aug-30 13:31S 01°24' W 048°30'0 0.0
2016-Aug-30 12:31S 01°24' W 048°30'0 0.0
2016-Aug-30 11:31S 01°24' W 048°30'0 0.0
2016-Aug-30 10:31S 01°24' W 048°30'0 0.0
2016-Aug-30 09:31S 01°24' W 048°30'0 0.0
2016-Aug-30 08:31S 01°24' W 048°30'0 0.0
2016-Aug-30 07:31S 01°24' W 048°30'0 0.0
2016-Aug-30 06:31S 01°24' W 048°30'0 0.0
2016-Aug-30 05:32S 01°24' W 048°30'0 0.0
2016-Aug-30 04:31S 01°24' W 048°30'0 0.0
2016-Aug-30 03:31S 01°24' W 048°30'0 0.0
2016-Aug-30 02:31S 01°24' W 048°30'0 0.0
2016-Aug-30 01:31S 01°24' W 048°30'0 0.0
2016-Aug-30 00:31S 01°24' W 048°30'0 0.0
2016-Aug-29 23:31S 01°24' W 048°30'0 0.0
2016-Aug-29 22:31S 01°24' W 048°30'0 0.0
2016-Aug-29 21:31S 01°24' W 048°30'0 0.0
2016-Aug-29 20:31S 01°24' W 048°30'0 0.0
2016-Aug-29 19:31S 01°24' W 048°30'0 0.0
2016-Aug-29 18:31S 01°24' W 048°30'0 0.0
2016-Aug-29 17:31S 01°24' W 048°30'0 0.0
2016-Aug-29 16:31S 01°24' W 048°30'0 0.0
2016-Aug-29 15:31S 01°24' W 048°30'0 0.0
2016-Aug-29 14:31S 01°24' W 048°30'0 0.0
2016-Aug-29 13:31S 01°24' W 048°30'0 0.0
2016-Aug-29 12:31S 01°24' W 048°30'0 0.0
2016-Aug-29 11:31S 01°24' W 048°30'0 0.0
2016-Aug-29 10:33S 01°24' W 048°30'3 2.8
2016-Aug-29 09:33S 01°26' W 048°32'0 0.1
2016-Aug-29 08:33S 01°27' W 048°32'0 0.2
2016-Aug-29 07:34S 01°26' W 048°32'0 0.1
2016-Aug-29 06:33S 01°26' W 048°32'0 0.0
2016-Aug-29 05:34S 01°26' W 048°32'0 0.0
2016-Aug-29 04:33S 01°26' W 048°32'0 0.0
2016-Aug-29 03:33S 01°26' W 048°32'1 1.4
2016-Aug-29 02:34S 01°25' W 048°31'2 1.6
2016-Aug-29 01:33S 01°26' W 048°32'0 0.0
2016-Aug-29 00:33S 01°27' W 048°32'0 0.0
2016-Aug-28 23:34S 01°27' W 048°32'0 0.0
2016-Aug-28 22:34S 01°27' W 048°32'0 0.0
2016-Aug-28 21:34S 01°27' W 048°32'0 0.1
2016-Aug-28 20:33S 01°27' W 048°32'0 0.2
2016-Aug-28 19:33S 01°26' W 048°32'0 0.1
2016-Aug-28 18:22S 01°26' W 048°32'0 0.1
2016-Aug-28 17:33S 01°26' W 048°32'0 0.0
2016-Aug-28 16:33S 01°26' W 048°32'0 0.0
2016-Aug-28 15:33S 01°26' W 048°32'0 0.0
2016-Aug-28 14:34S 01°26' W 048°32'0 0.1
2016-Aug-28 13:33S 01°26' W 048°32'0 0.1
2016-Aug-28 12:34S 01°26' W 048°32'0 0.1
2016-Aug-28 11:34S 01°27' W 048°32'0 0.1
2016-Aug-28 10:33S 01°27' W 048°32'0 0.0
2016-Aug-28 09:33S 01°27' W 048°32'0 0.0
2016-Aug-28 08:33S 01°27' W 048°32'0 0.0
2016-Aug-28 07:33S 01°26' W 048°32'0 0.1
2016-Aug-28 06:33S 01°26' W 048°32'0 0.1
2016-Aug-28 05:33S 01°26' W 048°32'0 0.0
2016-Aug-28 04:34S 01°26' W 048°32'0 0.0
2016-Aug-28 03:33S 01°26' W 048°32'0 0.3
2016-Aug-28 02:34S 01°26' W 048°31'0 0.3
2016-Aug-28 01:34S 01°26' W 048°32'0 0.1
2016-Aug-28 00:33S 01°26' W 048°32'0 0.1
2016-Aug-27 23:34S 01°27' W 048°32'0 0.0
2016-Aug-27 22:33S 01°27' W 048°32'0 0.0
2016-Aug-27 21:33S 01°27' W 048°32'0 0.0
2016-Aug-27 20:33S 01°27' W 048°32'0 0.0
2016-Aug-27 19:34S 01°27' W 048°32'0 0.2
2016-Aug-27 18:34S 01°26' W 048°32'0 0.0
2016-Aug-27 17:33S 01°26' W 048°32'0 0.0
2016-Aug-27 16:33S 01°26' W 048°32'0 0.0
2016-Aug-27 15:33S 01°26' W 048°32'0 0.0
2016-Aug-27 14:33S 01°26' W 048°32'0 0.1
2016-Aug-27 13:33S 01°26' W 048°32'0 0.0
2016-Aug-27 12:34S 01°26' W 048°32'0 0.1
2016-Aug-27 11:33S 01°26' W 048°32'0 0.1
2016-Aug-27 10:33S 01°27' W 048°32'0 0.0
2016-Aug-27 09:33S 01°27' W 048°32'0 0.0
2016-Aug-27 08:34S 01°27' W 048°32'0 0.0
2016-Aug-27 07:33S 01°27' W 048°32'0 0.0
2016-Aug-27 06:34S 01°27' W 048°32'0 0.1
2016-Aug-27 04:33S 01°26' W 048°32'0 0.0
2016-Aug-27 03:33S 01°26' W 048°32'0 0.0
2016-Aug-27 02:33S 01°26' W 048°32'0 0.0
2016-Aug-27 01:34S 01°26' W 048°32'0 0.0
2016-Aug-27 00:33S 01°26' W 048°32'0 0.2
2016-Aug-26 23:33S 01°26' W 048°32'0 0.1
2016-Aug-26 22:33S 01°27' W 048°32'0 0.0
2016-Aug-26 21:34S 01°27' W 048°32'0 0.1
2016-Aug-26 20:33S 01°27' W 048°32'0 0.1
2016-Aug-26 19:34S 01°27' W 048°32'0 0.0
2016-Aug-26 18:34S 01°26' W 048°32'0 0.2
2016-Aug-26 17:33S 01°26' W 048°32'0 0.0
2016-Aug-26 16:33S 01°26' W 048°32'0 0.0
2016-Aug-26 15:33S 01°26' W 048°32'0 0.0
2016-Aug-26 14:33S 01°26' W 048°32'0 0.0
2016-Aug-26 13:33S 01°26' W 048°32'0 0.0
2016-Aug-26 12:33S 01°26' W 048°32'0 0.0
2016-Aug-26 11:33S 01°26' W 048°32'0 0.1
2016-Aug-26 10:34S 01°26' W 048°32'0 0.1
2016-Aug-26 09:33S 01°27' W 048°32'0 0.0
2016-Aug-26 08:33S 01°27' W 048°32'0 0.0
2016-Aug-26 07:33S 01°27' W 048°32'0 0.0
2016-Aug-26 06:34S 01°27' W 048°32'0 0.0
2016-Aug-26 04:33S 01°26' W 048°32'0 0.2
2016-Aug-26 03:33S 01°26' W 048°32'0 0.3
2016-Aug-26 02:33S 01°26' W 048°32'0 0.0
2016-Aug-26 01:34S 01°26' W 048°32'0 0.0
2016-Aug-26 00:33S 01°26' W 048°32'0 0.0
2016-Aug-25 23:33S 01°26' W 048°32'0 0.2
2016-Aug-25 22:33S 01°26' W 048°32'0 0.1
2016-Aug-25 21:33S 01°27' W 048°32'5 5.0
2016-Aug-25 20:33S 01°30' W 048°36'4 4.3
2016-Aug-25 19:31S 01°27' W 048°32'1 0.7
2016-Aug-25 18:31S 01°27' W 048°32'0 0.1
2016-Aug-25 17:31S 01°27' W 048°32'0 0.2
2016-Aug-25 16:32S 01°26' W 048°32'0 0.1
2016-Aug-25 15:32S 01°26' W 048°32'2 2.0
2016-Aug-25 14:31S 01°28' W 048°32'2 1.8
2016-Aug-25 13:32S 01°26' W 048°32'0 0.2
2016-Aug-25 12:32S 01°26' W 048°32'0 0.1
2016-Aug-25 11:32S 01°26' W 048°32'0 0.1
2016-Aug-25 10:32S 01°26' W 048°32'0 0.1
2016-Aug-25 09:33S 01°26' W 048°32'0 0.1
2016-Aug-25 08:31S 01°27' W 048°32'0 0.0
2016-Aug-25 07:32S 01°27' W 048°32'0 0.0
2016-Aug-25 06:31S 01°27' W 048°32'0 0.1
2016-Aug-25 04:33S 01°27' W 048°32'0 0.2
2016-Aug-25 03:31S 01°26' W 048°32'0 0.1
2016-Aug-25 02:31S 01°26' W 048°32'0 0.0
2016-Aug-25 01:32S 01°26' W 048°32'0 0.0
2016-Aug-25 00:33S 01°26' W 048°32'0 0.0
2016-Aug-24 23:31S 01°26' W 048°32'0 0.0
2016-Aug-24 22:31S 01°26' W 048°32'0 0.1
2016-Aug-24 21:32S 01°26' W 048°32'0 0.1
2016-Aug-24 20:31S 01°26' W 048°32'0 0.1
2016-Aug-24 19:32S 01°27' W 048°32'0 0.0
2016-Aug-24 18:32S 01°27' W 048°32'0 0.0
2016-Aug-24 17:31S 01°27' W 048°32'0 0.0
2016-Aug-24 16:32S 01°27' W 048°32'0 0.1
2016-Aug-24 15:32S 01°26' W 048°32'1 0.6
2016-Aug-24 14:32S 01°26' W 048°32'1 0.6
2016-Aug-24 13:28S 01°26' W 048°32'0 0.0
2016-Aug-24 12:32S 01°26' W 048°32'0 0.0
2016-Aug-24 11:32S 01°26' W 048°32'0 0.0
2016-Aug-24 10:31S 01°26' W 048°32'0 0.0
2016-Aug-24 09:32S 01°26' W 048°32'0 0.1
2016-Aug-24 08:32S 01°26' W 048°32'0 0.1
2016-Aug-24 07:31S 01°27' W 048°32'0 0.0
2016-Aug-24 06:32S 01°27' W 048°32'0 0.0
2016-Aug-24 04:32S 01°27' W 048°32'0 0.4
2016-Aug-24 03:32S 01°27' W 048°32'1 0.5
2016-Aug-24 02:32S 01°26' W 048°32'0 0.0
2016-Aug-24 01:32S 01°26' W 048°32'0 0.0
2016-Aug-24 00:33S 01°26' W 048°32'0 0.0
2016-Aug-23 23:32S 01°26' W 048°32'0 0.0
2016-Aug-23 22:32S 01°26' W 048°32'0 0.0
2016-Aug-23 21:31S 01°26' W 048°32'0 0.1
2016-Aug-23 20:32S 01°26' W 048°32'0 0.2
2016-Aug-23 19:32S 01°27' W 048°32'0 0.1
2016-Aug-23 18:31S 01°27' W 048°32'0 0.0
2016-Aug-23 17:32S 01°27' W 048°32'0 0.0
2016-Aug-23 16:32S 01°27' W 048°32'0 0.0
2016-Aug-23 15:32S 01°27' W 048°32'0 0.1
2016-Aug-23 14:29S 01°27' W 048°32'0 0.2
2016-Aug-23 13:32S 01°26' W 048°32'0 0.0
2016-Aug-23 12:32S 01°26' W 048°32'0 0.0
2016-Aug-23 11:32S 01°26' W 048°32'0 0.0
2016-Aug-23 10:32S 01°26' W 048°32'0 0.0
2016-Aug-23 09:32S 01°26' W 048°32'0 0.0
2016-Aug-23 08:32S 01°26' W 048°32'0 0.3
2016-Aug-23 07:33S 01°27' W 048°32'0 0.0
2016-Aug-23 06:33S 01°27' W 048°32'0 0.0
2016-Aug-23 05:33S 01°27' W 048°32'0 0.0
2016-Aug-23 04:33S 01°27' W 048°32'0 0.1
2016-Aug-23 03:33S 01°27' W 048°32'0 0.1
2016-Aug-23 02:33S 01°27' W 048°32'0 0.2
2016-Aug-23 01:33S 01°26' W 048°32'0 0.0
2016-Aug-23 00:33S 01°26' W 048°32'0 0.0
2016-Aug-22 23:33S 01°26' W 048°32'0 0.0
2016-Aug-22 22:33S 01°26' W 048°32'0 0.0
2016-Aug-22 21:33S 01°26' W 048°32'0 0.0
2016-Aug-22 20:33S 01°26' W 048°32'0 0.2
2016-Aug-22 19:33S 01°27' W 048°32'0 0.1
2016-Aug-22 18:33S 01°27' W 048°32'0 0.0
2016-Aug-22 17:33S 01°27' W 048°32'0 0.0
2016-Aug-22 16:33S 01°27' W 048°32'0 0.0
2016-Aug-22 15:33S 01°27' W 048°32'0 0.0
2016-Aug-22 14:33S 01°27' W 048°32'0 0.2
2016-Aug-22 13:33S 01°26' W 048°32'0 0.0
2016-Aug-22 12:32S 01°26' W 048°32'0 0.0
2016-Aug-22 11:32S 01°26' W 048°32'0 0.0
2016-Aug-22 10:32S 01°26' W 048°32'0 0.0
2016-Aug-22 09:32S 01°26' W 048°32'0 0.0
2016-Aug-22 08:32S 01°26' W 048°32'0 0.0
2016-Aug-22 07:32S 01°26' W 048°32'0 0.2
2016-Aug-22 06:32S 01°27' W 048°32'0 0.2
2016-Aug-22 04:32S 01°26' W 048°32'0 0.3
2016-Aug-22 03:32S 01°27' W 048°32'0 0.0
2016-Aug-22 02:32S 01°27' W 048°32'0 0.1
2016-Aug-22 01:32S 01°26' W 048°32'0 0.2
2016-Aug-22 00:32S 01°26' W 048°32'0 0.0
2016-Aug-21 23:33S 01°26' W 048°32'0 0.0
2016-Aug-21 22:32S 01°26' W 048°32'0 0.0
2016-Aug-21 21:32S 01°26' W 048°32'0 0.1
2016-Aug-21 20:32S 01°26' W 048°32'0 0.1
2016-Aug-21 19:32S 01°26' W 048°32'0 0.1
2016-Aug-21 18:32S 01°27' W 048°32'0 0.0
2016-Aug-21 17:32S 01°27' W 048°32'0 0.0
2016-Aug-21 16:33S 01°27' W 048°32'0 0.0
2016-Aug-21 15:32S 01°27' W 048°32'0 0.0
2016-Aug-21 14:33S 01°27' W 048°32'0 0.0
2016-Aug-21 13:32S 01°27' W 048°32'0 0.3
2016-Aug-21 12:32S 01°26' W 048°32'0 0.0
2016-Aug-21 11:32S 01°26' W 048°32'0 0.0
2016-Aug-21 10:32S 01°26' W 048°32'0 0.0
2016-Aug-21 09:32S 01°26' W 048°32'0 0.1
2016-Aug-21 08:32S 01°26' W 048°32'0 0.0
2016-Aug-21 07:32S 01°26' W 048°32'  

Dump ship's entire track history